Time,TemperatureF,DewpointF,PressureIn,WindDirection,WindDirectionDegrees,WindSpeedMPH,WindSpeedGustMPH,Humidity,HourlyPrecipIn,Conditions,Clouds,dailyrainin,SoftwareType,DateUTC
2013-03-30 14:19:00,44.2,34.7,29.00,WNW,292,7.8,7.8,69,0.00,,---,0.00,VWS V14.01,2013-03-30 19:19:00,
2013-03-30 14:21:00,44.2,34.7,29.00,NNW,338,7.6,7.8,69,0.00,,---,0.00,VWS V14.01,2013-03-30 19:21:00,
2013-03-30 14:22:00,44.2,34.7,29.00,NNW,338,7.6,7.6,69,0.00,,---,0.00,VWS V14.01,2013-03-30 19:22:00,
2013-03-30 14:23:00,44.2,34.7,29.00,NW,315,12.1,12.1,69,0.00,,---,0.00,VWS V14.01,2013-03-30 19:23:00,
2013-03-30 14:24:00,43.9,34.4,28.70,NNW,338,8.7,11.0,69,0.00,,---,0.00,VWS V14.01,2013-03-30 19:24:00,
2013-03-30 14:25:00,43.9,34.4,28.70,NW,315,10.7,11.0,69,0.00,,---,0.00,VWS V14.01,2013-03-30 19:25:00,
2013-03-30 14:27:00,44.1,34.6,28.70,WNW,292,10.1,10.7,69,0.00,,---,0.00,VWS V14.01,2013-03-30 19:27:00,
2013-03-30 14:29:00,43.7,34.6,28.70,NW,315,10.1,10.1,70,0.00,,---,0.00,VWS V14.01,2013-03-30 19:29:00,
2013-03-30 14:30:00,43.7,34.6,28.70,NW,315,10.1,10.1,70,0.00,,---,0.00,VWS V14.01,2013-03-30 19:30:00,
2013-03-30 14:33:00,44.1,34.9,28.70,WNW,292,6.3,10.1,70,0.00,,---,0.00,VWS V14.01,2013-03-30 19:33:00,
2013-03-30 14:34:00,44.1,35.3,28.70,NW,315,10.5,10.5,71,0.00,,---,0.00,VWS V14.01,2013-03-30 19:34:00,
2013-03-30 14:35:00,44.1,35.3,28.70,NW,315,10.5,10.5,71,0.00,,---,0.00,VWS V14.01,2013-03-30 19:35:00,
2013-03-30 14:36:00,44.1,35.3,28.70,NW,315,7.6,10.5,71,0.00,,---,0.00,VWS V14.01,2013-03-30 19:36:00,
2013-03-30 14:37:00,44.1,35.3,28.70,NW,315,7.6,7.6,71,0.00,,---,0.00,VWS V14.01,2013-03-30 19:37:00,
2013-03-30 14:38:00,44.1,35.3,28.70,NW,315,7.6,7.6,71,0.00,,---,0.00,VWS V14.01,2013-03-30 19:38:00,
2013-03-30 14:39:00,44.1,35.3,28.70,WNW,292,8.5,8.5,71,0.00,,---,0.00,VWS V14.01,2013-03-30 19:39:00,
2013-03-30 14:41:00,44.1,35.3,28.70,WNW,292,8.1,8.5,71,0.00,,---,0.00,VWS V14.01,2013-03-30 19:41:00,
2013-03-30 14:43:00,44.2,35.5,28.70,WNW,292,12.3,12.8,71,0.00,,---,0.00,VWS V14.01,2013-03-30 19:43:00,
2013-03-30 14:44:00,44.1,34.9,28.70,WNW,292,11.4,11.4,70,0.00,,---,0.00,VWS V14.01,2013-03-30 19:44:00,
2013-03-30 14:46:00,44.1,34.9,28.70,WNW,292,11.4,11.4,70,0.00,,---,0.00,VWS V14.01,2013-03-30 19:46:00,
2013-03-30 14:48:00,44.1,34.9,28.70,WSW,248,7.8,11.4,70,0.00,,---,0.00,VWS V14.01,2013-03-30 19:48:00,
2013-03-30 14:49:00,44.2,35.1,28.70,WNW,292,6.5,12.3,70,0.00,,---,0.00,VWS V14.01,2013-03-30 19:49:00,
2013-03-30 14:50:00,44.2,35.1,28.70,NW,315,9.8,12.3,70,0.00,,---,0.00,VWS V14.01,2013-03-30 19:50:00,
2013-03-30 14:51:00,44.2,35.1,28.70,NNW,338,8.7,9.8,70,0.00,,---,0.00,VWS V14.01,2013-03-30 19:51:00,
2013-03-30 14:52:00,44.2,35.1,28.70,NW,315,8.1,10.7,70,0.00,,---,0.00,VWS V14.01,2013-03-30 19:52:00,
2013-03-30 14:53:00,43.9,35.1,28.70,NW,315,10.7,11.2,71,0.00,,---,0.00,VWS V14.01,2013-03-30 19:53:00,
2013-03-30 14:54:00,43.7,34.9,28.70,NW,315,8.1,10.3,71,0.00,,---,0.00,VWS V14.01,2013-03-30 19:54:00,
2013-03-30 14:55:00,43.7,34.9,28.70,WNW,292,11.0,11.0,71,0.00,,---,0.00,VWS V14.01,2013-03-30 19:55:00,
2013-03-30 14:56:00,43.7,34.9,28.70,WNW,292,10.1,12.1,71,0.00,,---,0.00,VWS V14.01,2013-03-30 19:56:00,
2013-03-30 14:57:00,43.9,35.1,28.70,WNW,292,7.4,10.7,71,0.00,,---,0.00,VWS V14.01,2013-03-30 19:57:00,
2013-03-30 14:58:00,44.1,35.3,28.70,NNW,338,7.6,10.5,71,0.00,,---,0.00,VWS V14.01,2013-03-30 19:58:00,
2013-03-30 14:59:00,43.9,35.1,28.70,NNW,338,10.1,10.1,71,0.00,,---,0.00,VWS V14.01,2013-03-30 19:59:00,
2013-03-30 15:00:00,43.9,35.1,28.70,WNW,292,9.8,10.1,71,0.00,,---,0.00,VWS V14.01,2013-03-30 20:00:00,
2013-03-30 15:01:00,43.7,34.9,28.70,WNW,292,9.8,9.8,71,0.00,,---,0.00,VWS V14.01,2013-03-30 20:01:00,
2013-03-30 15:02:00,43.7,34.6,28.70,NNW,338,7.2,12.3,70,0.00,,---,0.00,VWS V14.01,2013-03-30 20:02:00,
2013-03-30 15:03:00,43.7,34.6,28.70,WNW,292,13.0,13.0,70,0.00,,---,0.00,VWS V14.01,2013-03-30 20:03:00,
2013-03-30 15:04:00,43.5,34.8,28.70,West,270,10.5,12.5,71,0.00,,---,0.00,VWS V14.01,2013-03-30 20:04:00,
2013-03-30 15:05:00,43.5,34.8,28.70,WNW,292,9.0,12.5,71,0.00,,---,0.00,VWS V14.01,2013-03-30 20:05:00,
2013-03-30 15:06:00,43.5,34.8,28.70,NNW,338,11.4,13.0,71,0.00,,---,0.00,VWS V14.01,2013-03-30 20:06:00,
2013-03-30 15:07:00,43.5,34.8,28.70,WNW,292,10.1,11.4,71,0.00,,---,0.00,VWS V14.01,2013-03-30 20:07:00,
2013-03-30 15:08:00,43.5,34.8,28.70,WNW,292,10.7,11.0,71,0.00,,---,0.00,VWS V14.01,2013-03-30 20:08:00,
2013-03-30 15:09:00,43.3,34.6,28.70,West,270,8.1,10.7,71,0.00,,---,0.00,VWS V14.01,2013-03-30 20:09:00,
2013-03-30 15:10:00,43.3,34.6,28.70,West,270,8.1,8.1,71,0.00,,---,0.00,VWS V14.01,2013-03-30 20:10:00,
2013-03-30 15:11:00,43.3,34.6,28.70,NW,315,6.3,12.5,71,0.00,,---,0.00,VWS V14.01,2013-03-30 20:11:00,
2013-03-30 15:12:00,43.0,34.6,28.70,NW,315,7.4,11.9,72,0.00,,---,0.00,VWS V14.01,2013-03-30 20:12:00,
2013-03-30 15:13:00,43.0,34.6,28.70,WSW,248,9.6,9.6,72,0.00,,---,0.00,VWS V14.01,2013-03-30 20:13:00,
2013-03-30 15:14:00,43.0,34.6,28.70,WNW,292,9.4,13.4,72,0.00,,---,0.00,VWS V14.01,2013-03-30 20:14:00,
2013-03-30 15:15:00,43.0,34.6,28.70,NW,315,10.1,10.1,72,0.00,,---,0.00,VWS V14.01,2013-03-30 20:15:00,
2013-03-30 15:16:00,42.8,34.4,28.70,WNW,292,10.3,10.7,72,0.00,,---,0.00,VWS V14.01,2013-03-30 20:16:00,
2013-03-30 15:17:00,42.8,34.4,28.70,WNW,292,10.7,12.5,72,0.00,,---,0.00,VWS V14.01,2013-03-30 20:17:00,
2013-03-30 15:18:00,43.0,34.6,28.70,WNW,292,9.4,11.0,72,0.00,,---,0.00,VWS V14.01,2013-03-30 20:18:00,
2013-03-30 15:19:00,42.8,34.8,28.70,NW,315,13.0,13.0,73,0.00,,---,0.00,VWS V14.01,2013-03-30 20:19:00,
2013-03-30 15:20:00,42.8,34.8,28.70,WNW,292,8.5,13.0,73,0.00,,---,0.00,VWS V14.01,2013-03-30 20:20:00,
2013-03-30 15:21:00,43.0,34.9,28.70,WNW,292,7.8,8.5,73,0.00,,---,0.00,VWS V14.01,2013-03-30 20:21:00,
2013-03-30 15:22:00,42.8,34.8,28.70,NNW,338,7.8,11.0,73,0.00,,---,0.00,VWS V14.01,2013-03-30 20:22:00,
2013-03-30 15:23:00,43.0,34.9,28.70,NW,315,7.4,8.5,73,0.00,,---,0.00,VWS V14.01,2013-03-30 20:23:00,
2013-03-30 15:24:00,43.0,34.9,28.70,NW,315,13.2,13.2,73,0.00,,---,0.00,VWS V14.01,2013-03-30 20:24:00,
2013-03-30 15:25:00,43.0,34.9,28.73,NW,315,13.2,13.2,73,0.00,,---,0.00,VWS V14.01,2013-03-30 20:25:00,
2013-03-30 15:26:00,42.6,34.6,28.73,NW,315,8.5,13.2,73,0.00,,---,0.00,VWS V14.01,2013-03-30 20:26:00,
2013-03-30 15:27:00,42.4,34.4,28.73,SSW,202,7.4,8.5,73,0.00,,---,0.00,VWS V14.01,2013-03-30 20:27:00,
2013-03-30 15:28:00,42.4,34.8,28.73,NNW,338,8.1,9.0,74,0.00,,---,0.00,VWS V14.01,2013-03-30 20:28:00,
2013-03-30 15:29:00,42.3,34.6,28.73,NNW,338,7.4,7.4,74,0.00,,---,0.00,VWS V14.01,2013-03-30 20:29:00,
2013-03-30 15:30:00,42.3,34.6,28.73,NNW,338,7.4,7.4,74,0.00,,---,0.00,VWS V14.01,2013-03-30 20:30:00,
2013-03-30 15:31:00,42.3,34.6,28.73,NNW,338,7.6,10.5,74,0.00,,---,0.00,VWS V14.01,2013-03-30 20:31:00,
2013-03-30 15:32:00,42.1,34.7,28.73,North,0,10.5,10.5,75,0.00,,---,0.00,VWS V14.01,2013-03-30 20:32:00,
2013-03-30 15:33:00,41.7,34.4,28.73,NNW,338,5.6,11.4,75,0.00,,---,0.00,VWS V14.01,2013-03-30 20:33:00,
2013-03-30 15:34:00,41.4,34.4,28.73,NNW,338,7.6,11.4,76,0.00,,---,0.00,VWS V14.01,2013-03-30 20:34:00,
2013-03-30 15:35:00,41.4,34.4,28.73,NW,315,11.9,11.9,76,0.00,,---,0.00,VWS V14.01,2013-03-30 20:35:00,
2013-03-30 15:36:00,41.2,34.2,28.73,NNW,338,9.8,12.1,76,0.00,,---,0.00,VWS V14.01,2013-03-30 20:36:00,
2013-03-30 15:37:00,41.0,34.0,28.73,NNW,338,5.8,12.5,76,0.00,,---,0.00,VWS V14.01,2013-03-30 20:37:00,
2013-03-30 15:38:00,41.0,34.0,28.73,NNW,338,14.1,14.1,76,0.00,,---,0.00,VWS V14.01,2013-03-30 20:38:00,
2013-03-30 15:39:00,41.0,34.0,28.73,NNW,338,12.5,14.1,76,0.00,,---,0.00,VWS V14.01,2013-03-30 20:39:00,
2013-03-30 15:40:00,41.0,34.0,28.73,NNW,338,12.5,14.1,76,0.00,,---,0.00,VWS V14.01,2013-03-30 20:40:00,
2013-03-30 15:41:00,40.6,34.0,28.73,NW,315,10.1,12.5,77,0.00,,---,0.00,VWS V14.01,2013-03-30 20:41:00,
2013-03-30 15:42:00,40.5,33.8,28.73,WNW,292,14.3,14.8,77,0.00,,---,0.00,VWS V14.01,2013-03-30 20:42:00,
2013-03-30 15:43:00,40.5,33.8,28.73,WNW,292,11.0,14.5,77,0.00,,---,0.00,VWS V14.01,2013-03-30 20:43:00,
2013-03-30 15:44:00,40.5,33.8,28.73,NNW,338,6.0,11.0,77,0.00,,---,0.00,VWS V14.01,2013-03-30 20:44:00,
2013-03-30 15:45:00,40.5,33.8,28.73,NW,315,13.6,13.6,77,0.00,,---,0.00,VWS V14.01,2013-03-30 20:45:00,
2013-03-30 15:46:00,40.3,34.0,28.73,NW,315,12.5,13.6,78,0.00,,---,0.00,VWS V14.01,2013-03-30 20:46:00,
2013-03-30 15:47:00,40.3,34.0,28.73,NW,315,10.7,12.5,78,0.00,,---,0.00,VWS V14.01,2013-03-30 20:47:00,
2013-03-30 15:48:00,40.1,33.8,28.73,WNW,292,11.2,14.8,78,0.00,,---,0.00,VWS V14.01,2013-03-30 20:48:00,
2013-03-30 15:49:00,40.1,33.8,28.73,NW,315,13.6,13.6,78,0.00,,---,0.00,VWS V14.01,2013-03-30 20:49:00,
2013-03-30 15:50:00,40.1,33.8,28.73,NW,315,13.0,13.6,78,0.00,,---,0.00,VWS V14.01,2013-03-30 20:50:00,
2013-03-30 15:51:00,39.9,33.6,28.73,NW,315,10.3,14.8,78,0.00,,---,0.00,VWS V14.01,2013-03-30 20:51:00,
2013-03-30 15:52:00,39.9,33.6,28.73,NW,315,10.1,12.8,78,0.00,,---,0.00,VWS V14.01,2013-03-30 20:52:00,
2013-03-30 15:53:00,39.9,33.6,28.73,NW,315,12.3,12.3,78,0.00,,---,0.00,VWS V14.01,2013-03-30 20:53:00,
2013-03-30 15:54:00,39.9,33.6,28.73,NNW,338,8.7,8.7,78,0.00,,---,0.00,VWS V14.01,2013-03-30 20:54:00,
2013-03-30 15:55:00,39.9,33.6,28.73,NNW,338,8.7,8.7,78,0.00,,---,0.00,VWS V14.01,2013-03-30 20:55:00,
2013-03-30 15:56:00,39.7,33.5,28.73,NNW,338,12.3,13.4,78,0.00,,---,0.00,VWS V14.01,2013-03-30 20:56:00,
2013-03-30 15:57:00,39.7,33.5,28.73,NW,315,11.0,12.3,78,0.00,,---,0.00,VWS V14.01,2013-03-30 20:57:00,
2013-03-30 15:58:00,39.7,33.8,28.73,NW,315,10.5,13.2,79,0.00,,---,0.00,VWS V14.01,2013-03-30 20:58:00,
2013-03-30 15:59:00,39.9,34.0,28.73,NW,315,6.5,6.9,79,0.00,,---,0.00,VWS V14.01,2013-03-30 20:59:00,
2013-03-30 16:00:00,39.9,34.0,28.73,NW,315,6.5,6.9,79,0.00,,---,0.00,VWS V14.01,2013-03-30 21:00:00,
2013-03-30 16:01:00,39.9,34.0,28.73,WNW,292,7.6,9.6,79,0.00,,---,0.00,VWS V14.01,2013-03-30 21:01:00,
2013-03-30 16:02:00,40.1,34.1,28.73,NNW,338,8.1,9.8,79,0.00,,---,0.00,VWS V14.01,2013-03-30 21:02:00,
2013-03-30 16:03:00,39.9,34.0,28.73,NNW,338,7.8,13.0,79,0.00,,---,0.00,VWS V14.01,2013-03-30 21:03:00,
2013-03-30 16:04:00,40.1,33.8,28.73,NW,315,6.3,12.3,78,0.00,,---,0.00,VWS V14.01,2013-03-30 21:04:00,
2013-03-30 16:05:00,40.1,33.8,28.73,NNW,338,9.8,12.3,78,0.00,,---,0.00,VWS V14.01,2013-03-30 21:05:00,
2013-03-30 16:06:00,39.9,33.6,28.73,NNW,338,8.5,10.7,78,0.00,,---,0.00,VWS V14.01,2013-03-30 21:06:00,
2013-03-30 16:07:00,39.9,33.6,28.73,NW,315,8.5,11.0,78,0.00,,---,0.00,VWS V14.01,2013-03-30 21:07:00,
2013-03-30 16:08:00,39.9,33.6,28.73,NW,315,11.0,11.4,78,0.00,,---,0.00,VWS V14.01,2013-03-30 21:08:00,
2013-03-30 16:09:00,39.9,33.6,28.73,NNW,338,5.6,12.8,78,0.00,,---,0.00,VWS V14.01,2013-03-30 21:09:00,
2013-03-30 16:10:00,39.9,33.6,28.73,NNW,338,5.6,12.8,78,0.00,,---,0.00,VWS V14.01,2013-03-30 21:10:00,
2013-03-30 16:11:00,39.9,33.6,28.73,NW,315,11.0,11.0,78,0.00,,---,0.00,VWS V14.01,2013-03-30 21:11:00,
2013-03-30 16:12:00,39.9,33.6,28.73,NW,315,6.3,11.0,78,0.00,,---,0.00,VWS V14.01,2013-03-30 21:12:00,
2013-03-30 16:13:00,39.9,33.6,28.73,NW,315,11.0,13.0,78,0.00,,---,0.00,VWS V14.01,2013-03-30 21:13:00,
2013-03-30 16:14:00,39.9,33.6,28.73,WNW,292,12.3,12.3,78,0.00,,---,0.00,VWS V14.01,2013-03-30 21:14:00,
2013-03-30 16:15:00,39.9,33.6,28.73,NW,315,14.3,14.3,78,0.00,,---,0.00,VWS V14.01,2013-03-30 21:15:00,
2013-03-30 16:16:00,39.9,33.6,28.73,NW,315,12.5,14.3,78,0.00,,---,0.00,VWS V14.01,2013-03-30 21:16:00,
2013-03-30 16:17:00,40.1,33.8,28.73,NNW,338,6.5,13.0,78,0.00,,---,0.00,VWS V14.01,2013-03-30 21:17:00,
2013-03-30 16:18:00,40.1,33.8,28.73,NNW,338,6.5,6.5,78,0.00,,---,0.00,VWS V14.01,2013-03-30 21:18:00,
2013-03-30 16:19:00,40.1,33.8,28.73,NW,315,9.8,9.8,78,0.00,,---,0.00,VWS V14.01,2013-03-30 21:19:00,
2013-03-30 16:20:00,40.1,33.8,28.73,NW,315,9.8,9.8,78,0.00,,---,0.00,VWS V14.01,2013-03-30 21:20:00,
2013-03-30 16:21:00,40.1,33.8,28.73,NW,315,5.6,11.0,78,0.00,,---,0.00,VWS V14.01,2013-03-30 21:21:00,
2013-03-30 16:22:00,40.1,33.8,28.73,NNW,338,7.2,11.9,78,0.00,,---,0.00,VWS V14.01,2013-03-30 21:22:00,
2013-03-30 16:23:00,40.1,33.8,28.73,WNW,292,10.7,10.7,78,0.00,,---,0.00,VWS V14.01,2013-03-30 21:23:00,
2013-03-30 16:24:00,40.1,33.8,28.70,NNW,338,4.0,8.1,78,0.00,,---,0.00,VWS V14.01,2013-03-30 21:24:00,
2013-03-30 16:25:00,40.1,33.8,28.70,NNW,338,4.0,8.1,78,0.00,,---,0.00,VWS V14.01,2013-03-30 21:25:00,
2013-03-30 16:26:00,40.1,33.8,28.70,WNW,292,4.0,9.6,78,0.00,,---,0.00,VWS V14.01,2013-03-30 21:26:00,
2013-03-30 16:27:00,40.1,33.8,28.70,NW,315,9.8,10.3,78,0.00,,---,0.00,VWS V14.01,2013-03-30 21:27:00,
2013-03-30 16:28:00,40.1,33.8,28.70,NW,315,9.8,9.8,78,0.00,,---,0.00,VWS V14.01,2013-03-30 21:28:00,
2013-03-30 16:29:00,40.1,33.8,28.70,WNW,292,9.0,11.0,78,0.00,,---,0.00,VWS V14.01,2013-03-30 21:29:00,
2013-03-30 16:30:00,40.1,33.8,28.70,WNW,292,9.0,11.0,78,0.00,,---,0.00,VWS V14.01,2013-03-30 21:30:00,
2013-03-30 16:31:00,39.9,33.6,28.70,NW,315,12.3,12.8,78,0.00,,---,0.00,VWS V14.01,2013-03-30 21:31:00,
2013-03-30 16:32:00,39.9,33.6,28.70,North,0,4.7,12.3,78,0.00,,---,0.00,VWS V14.01,2013-03-30 21:32:00,
2013-03-30 16:33:00,39.9,33.6,28.70,NNW,338,9.8,9.8,78,0.00,,---,0.00,VWS V14.01,2013-03-30 21:33:00,
2013-03-30 16:34:00,39.7,33.5,28.70,NNW,338,6.0,12.3,78,0.00,,---,0.00,VWS V14.01,2013-03-30 21:34:00,
2013-03-30 16:35:00,39.7,33.5,28.70,NNW,338,6.0,12.3,78,0.00,,---,0.00,VWS V14.01,2013-03-30 21:35:00,
2013-03-30 16:36:00,39.7,33.5,28.70,WNW,292,8.7,8.7,78,0.00,,---,0.00,VWS V14.01,2013-03-30 21:36:00,
2013-03-30 16:37:00,39.7,33.5,28.70,NNW,338,5.4,8.7,78,0.00,,---,0.00,VWS V14.01,2013-03-30 21:37:00,
2013-03-30 16:38:00,39.7,33.5,28.70,NNW,338,5.6,5.6,78,0.00,,---,0.00,VWS V14.01,2013-03-30 21:38:00,
2013-03-30 16:39:00,39.7,33.5,28.70,NNW,338,7.6,7.6,78,0.00,,---,0.00,VWS V14.01,2013-03-30 21:39:00,
2013-03-30 16:40:00,39.7,33.5,28.70,NNW,338,7.6,7.6,78,0.00,,---,0.00,VWS V14.01,2013-03-30 21:40:00,
2013-03-30 16:41:00,39.7,33.5,28.70,NNW,338,8.7,8.7,78,0.00,,---,0.00,VWS V14.01,2013-03-30 21:41:00,
2013-03-30 16:42:00,39.7,33.5,28.70,NNW,338,8.7,8.7,78,0.00,,---,0.00,VWS V14.01,2013-03-30 21:42:00,
2013-03-30 16:43:00,39.7,33.5,28.70,NW,315,5.4,10.7,78,0.00,,---,0.00,VWS V14.01,2013-03-30 21:43:00,
2013-03-30 16:44:00,39.9,33.6,28.70,NNW,338,7.8,7.8,78,0.00,,---,0.00,VWS V14.01,2013-03-30 21:44:00,
2013-03-30 16:45:00,39.9,33.6,28.70,NNW,338,7.8,7.8,78,0.00,,---,0.00,VWS V14.01,2013-03-30 21:45:00,
2013-03-30 16:46:00,40.1,33.5,28.70,WNW,292,11.0,11.0,77,0.00,,---,0.00,VWS V14.01,2013-03-30 21:46:00,
2013-03-30 16:47:00,40.1,33.5,28.70,WNW,292,8.5,11.0,77,0.00,,---,0.00,VWS V14.01,2013-03-30 21:47:00,
2013-03-30 16:48:00,40.1,33.5,28.70,NNW,338,9.8,9.8,77,0.00,,---,0.00,VWS V14.01,2013-03-30 21:48:00,
2013-03-30 16:49:00,40.1,33.5,28.70,NW,315,6.5,11.0,77,0.00,,---,0.00,VWS V14.01,2013-03-30 21:49:00,
2013-03-30 16:50:00,40.1,33.5,28.70,NW,315,7.4,11.0,77,0.00,,---,0.00,VWS V14.01,2013-03-30 21:50:00,
2013-03-30 16:51:00,40.1,33.5,28.70,WNW,292,5.6,7.4,77,0.00,,---,0.00,VWS V14.01,2013-03-30 21:51:00,
2013-03-30 16:52:00,40.3,33.7,28.70,NW,315,9.8,9.8,77,0.00,,---,0.00,VWS V14.01,2013-03-30 21:52:00,
2013-03-30 16:53:00,40.5,33.8,28.70,NW,315,6.3,9.8,77,0.00,,---,0.00,VWS V14.01,2013-03-30 21:53:00,
2013-03-30 16:54:00,40.5,33.8,28.73,WNW,292,8.7,8.7,77,0.00,,---,0.00,VWS V14.01,2013-03-30 21:54:00,
2013-03-30 16:55:00,40.5,33.8,28.73,WNW,292,8.7,8.7,77,0.00,,---,0.00,VWS V14.01,2013-03-30 21:55:00,
2013-03-30 16:56:00,40.5,33.8,28.73,NW,315,5.4,8.7,77,0.00,,---,0.00,VWS V14.01,2013-03-30 21:56:00,
2013-03-30 16:57:00,40.5,33.5,28.73,WNW,292,4.9,6.5,76,0.00,,---,0.00,VWS V14.01,2013-03-30 21:57:00,
2013-03-30 16:58:00,40.6,34.0,28.73,NNW,338,4.9,6.0,77,0.00,,---,0.00,VWS V14.01,2013-03-30 21:58:00,
2013-03-30 16:59:00,40.6,33.7,28.73,NNW,338,5.6,7.8,76,0.00,,---,0.00,VWS V14.01,2013-03-30 21:59:00,
2013-03-30 17:00:00,40.6,33.7,28.73,WNW,292,10.7,10.7,76,0.00,,---,0.00,VWS V14.01,2013-03-30 22:00:00,
2013-03-30 17:01:00,40.6,33.7,28.73,WSW,248,9.8,10.7,76,0.00,,---,0.00,VWS V14.01,2013-03-30 22:01:00,
2013-03-30 17:02:00,41.0,33.7,28.73,NNW,338,8.5,11.0,75,0.00,,---,0.00,VWS V14.01,2013-03-30 22:02:00,
2013-03-30 17:03:00,41.0,33.7,28.73,NNW,338,10.3,10.3,75,0.00,,---,0.00,VWS V14.01,2013-03-30 22:03:00,
2013-03-30 17:04:00,40.8,33.8,28.73,NW,315,10.5,10.5,76,0.00,,---,0.00,VWS V14.01,2013-03-30 22:04:00,
2013-03-30 17:05:00,40.8,33.8,28.73,NW,315,10.5,12.3,76,0.00,,---,0.00,VWS V14.01,2013-03-30 22:05:00,
2013-03-30 17:07:00,40.8,33.8,28.73,NNW,338,9.6,10.5,76,0.00,,---,0.00,VWS V14.01,2013-03-30 22:07:00,
2013-03-30 17:08:00,40.8,33.8,28.73,NW,315,10.3,10.3,76,0.00,,---,0.00,VWS V14.01,2013-03-30 22:08:00,
2013-03-30 17:09:00,41.0,33.7,28.70,WNW,292,6.5,10.5,75,0.00,,---,0.00,VWS V14.01,2013-03-30 22:09:00,
2013-03-30 17:11:00,41.0,33.7,28.70,WNW,292,7.6,10.5,75,0.00,,---,0.00,VWS V14.01,2013-03-30 22:11:00,
2013-03-30 17:12:00,41.0,33.7,28.70,NW,315,9.8,9.8,75,0.00,,---,0.00,VWS V14.01,2013-03-30 22:12:00,
2013-03-30 17:13:00,41.2,33.9,28.70,WNW,292,6.7,9.8,75,0.00,,---,0.00,VWS V14.01,2013-03-30 22:13:00,
2013-03-30 17:14:00,41.4,33.7,28.70,WNW,292,5.6,8.7,74,0.00,,---,0.00,VWS V14.01,2013-03-30 22:14:00,
2013-03-30 17:15:00,41.4,33.7,28.70,WNW,292,5.6,8.7,74,0.00,,---,0.00,VWS V14.01,2013-03-30 22:15:00,
2013-03-30 17:16:00,41.4,33.7,28.70,NNW,338,10.1,10.1,74,0.00,,---,0.00,VWS V14.01,2013-03-30 22:16:00,
2013-03-30 17:17:00,41.5,33.9,28.70,NW,315,10.3,10.3,74,0.00,,---,0.00,VWS V14.01,2013-03-30 22:17:00,
2013-03-30 17:18:00,41.5,33.9,28.70,NW,315,7.6,10.3,74,0.00,,---,0.00,VWS V14.01,2013-03-30 22:18:00,
2013-03-30 17:19:00,41.7,34.1,28.70,WNW,292,7.4,12.3,74,0.00,,---,0.00,VWS V14.01,2013-03-30 22:19:00,
2013-03-30 17:20:00,41.7,34.1,28.70,WNW,292,7.4,12.3,74,0.00,,---,0.00,VWS V14.01,2013-03-30 22:20:00,
2013-03-30 17:21:00,41.7,34.1,28.70,NW,315,9.6,10.1,74,0.00,,---,0.00,VWS V14.01,2013-03-30 22:21:00,
2013-03-30 17:22:00,41.7,33.7,28.70,NW,315,10.3,10.3,73,0.00,,---,0.00,VWS V14.01,2013-03-30 22:22:00,
2013-03-30 17:23:00,41.7,33.7,28.70,WNW,292,6.0,10.3,73,0.00,,---,0.00,VWS V14.01,2013-03-30 22:23:00,
2013-03-30 17:24:00,41.5,33.5,28.70,West,270,8.7,10.7,73,0.00,,---,0.00,VWS V14.01,2013-03-30 22:24:00,
2013-03-30 17:25:00,41.5,33.5,28.70,West,270,8.7,10.7,73,0.00,,---,0.00,VWS V14.01,2013-03-30 22:25:00,
2013-03-30 17:26:00,41.5,33.5,28.70,WNW,292,10.5,10.5,73,0.00,,---,0.00,VWS V14.01,2013-03-30 22:26:00,
2013-03-30 17:27:00,41.5,33.5,28.70,NW,315,10.3,10.5,73,0.00,,---,0.00,VWS V14.01,2013-03-30 22:27:00,
2013-03-30 17:28:00,41.5,33.5,28.70,WNW,292,9.8,10.3,73,0.00,,---,0.00,VWS V14.01,2013-03-30 22:28:00,
2013-03-30 17:29:00,41.5,33.5,28.70,West,270,8.7,8.7,73,0.00,,---,0.00,VWS V14.01,2013-03-30 22:29:00,
2013-03-30 17:30:00,41.5,33.5,28.70,West,270,8.7,11.0,73,0.00,,---,0.00,VWS V14.01,2013-03-30 22:30:00,
2013-03-30 17:31:00,41.5,33.5,28.70,WNW,292,10.7,10.7,73,0.00,,---,0.00,VWS V14.01,2013-03-30 22:31:00,
2013-03-30 17:32:00,41.5,33.5,28.70,NW,315,8.7,10.7,73,0.00,,---,0.00,VWS V14.01,2013-03-30 22:32:00,
2013-03-30 17:33:00,41.4,33.4,28.70,WNW,292,7.8,11.0,73,0.00,,---,0.00,VWS V14.01,2013-03-30 22:33:00,
2013-03-30 17:34:00,41.4,33.4,28.70,West,270,8.7,10.1,73,0.00,,---,0.00,VWS V14.01,2013-03-30 22:34:00,
2013-03-30 17:35:00,41.4,33.4,28.70,West,270,8.7,10.1,73,0.00,,---,0.00,VWS V14.01,2013-03-30 22:35:00,
2013-03-30 17:36:00,41.4,33.4,28.70,WNW,292,5.8,8.7,73,0.00,,---,0.00,VWS V14.01,2013-03-30 22:36:00,
2013-03-30 17:37:00,41.5,33.5,28.70,NW,315,6.3,8.5,73,0.00,,---,0.00,VWS V14.01,2013-03-30 22:37:00,
2013-03-30 17:39:00,41.2,33.2,28.70,WNW,292,9.8,9.8,73,0.00,,---,0.00,VWS V14.01,2013-03-30 22:39:00,
2013-03-30 17:40:00,41.2,33.2,28.70,WNW,292,9.8,10.7,73,0.00,,---,0.00,VWS V14.01,2013-03-30 22:40:00,
2013-03-30 17:43:00,41.2,33.2,28.70,NNW,338,8.5,10.7,73,0.00,,---,0.00,VWS V14.01,2013-03-30 22:43:00,
2013-03-30 17:44:00,40.8,33.2,28.70,WNW,292,10.3,10.3,74,0.00,,---,0.00,VWS V14.01,2013-03-30 22:44:00,
2013-03-30 17:45:00,40.8,33.2,28.70,WNW,292,10.3,10.5,74,0.00,,---,0.00,VWS V14.01,2013-03-30 22:45:00,
2013-03-30 17:46:00,40.6,33.0,28.70,NW,315,12.3,12.3,74,0.00,,---,0.00,VWS V14.01,2013-03-30 22:46:00,
2013-03-30 17:47:00,40.6,33.0,28.70,NW,315,6.3,12.3,74,0.00,,---,0.00,VWS V14.01,2013-03-30 22:47:00,
2013-03-30 17:48:00,40.5,33.2,28.70,West,270,5.4,10.5,75,0.00,,---,0.00,VWS V14.01,2013-03-30 22:48:00,
2013-03-30 17:49:00,40.5,33.2,28.70,NW,315,8.1,8.1,75,0.00,,---,0.00,VWS V14.01,2013-03-30 22:49:00,
2013-03-30 17:50:00,40.5,33.2,28.70,NW,315,8.1,8.5,75,0.00,,---,0.00,VWS V14.01,2013-03-30 22:50:00,
2013-03-30 17:51:00,40.5,33.2,28.70,WNW,292,10.5,10.5,75,0.00,,---,0.00,VWS V14.01,2013-03-30 22:51:00,
2013-03-30 17:52:00,40.5,33.2,28.70,West,270,8.5,10.5,75,0.00,,---,0.00,VWS V14.01,2013-03-30 22:52:00,
2013-03-30 17:53:00,40.3,33.0,28.70,WNW,292,12.5,12.5,75,0.00,,---,0.00,VWS V14.01,2013-03-30 22:53:00,
2013-03-30 17:54:00,40.1,32.8,28.70,WNW,292,11.0,12.5,75,0.00,,---,0.00,VWS V14.01,2013-03-30 22:54:00,
2013-03-30 17:55:00,40.1,32.8,28.70,WNW,292,11.0,12.5,75,0.00,,---,0.00,VWS V14.01,2013-03-30 22:55:00,
2013-03-30 17:56:00,39.9,32.7,28.70,West,270,10.3,11.0,75,0.00,,---,0.00,VWS V14.01,2013-03-30 22:56:00,
2013-03-30 17:57:00,39.9,32.7,28.70,WNW,292,11.0,11.0,75,0.00,,---,0.00,VWS V14.01,2013-03-30 22:57:00,
2013-03-30 17:58:00,39.9,32.7,28.70,WNW,292,8.1,11.0,75,0.00,,---,0.00,VWS V14.01,2013-03-30 22:58:00,
2013-03-30 17:59:00,39.7,32.5,28.70,WNW,292,8.7,8.7,75,0.00,,---,0.00,VWS V14.01,2013-03-30 22:59:00,
2013-03-30 18:00:00,39.7,32.5,28.70,NNW,338,8.7,13.4,75,0.00,,---,0.00,VWS V14.01,2013-03-30 23:00:00,
2013-03-30 18:01:00,39.7,32.5,28.70,WNW,292,9.2,10.3,75,0.00,,---,0.00,VWS V14.01,2013-03-30 23:01:00,
2013-03-30 18:02:00,39.7,32.8,28.70,NW,315,6.9,10.1,76,0.00,,---,0.00,VWS V14.01,2013-03-30 23:02:00,
2013-03-30 18:03:00,39.7,32.8,28.70,NW,315,8.7,10.5,76,0.00,,---,0.00,VWS V14.01,2013-03-30 23:03:00,
2013-03-30 18:04:00,39.6,32.6,28.70,WNW,292,7.4,8.7,76,0.00,,---,0.00,VWS V14.01,2013-03-30 23:04:00,
2013-03-30 18:05:00,39.6,32.6,28.70,NW,315,8.5,10.1,76,0.00,,---,0.00,VWS V14.01,2013-03-30 23:05:00,
2013-03-30 18:06:00,39.6,33.0,28.70,WNW,292,10.7,10.7,77,0.00,,---,0.00,VWS V14.01,2013-03-30 23:06:00,
2013-03-30 18:07:00,39.4,32.8,28.70,NW,315,7.4,10.7,77,0.00,,---,0.00,VWS V14.01,2013-03-30 23:07:00,
2013-03-30 18:08:00,39.6,33.0,28.70,WNW,292,7.4,7.8,77,0.00,,---,0.00,VWS V14.01,2013-03-30 23:08:00,
2013-03-30 18:09:00,39.4,32.8,28.70,NW,315,9.8,9.8,77,0.00,,---,0.00,VWS V14.01,2013-03-30 23:09:00,
2013-03-30 18:10:00,39.4,32.8,28.70,WNW,292,9.8,10.1,77,0.00,,---,0.00,VWS V14.01,2013-03-30 23:10:00,
2013-03-30 18:11:00,39.4,32.8,28.70,WNW,292,8.1,10.3,77,0.00,,---,0.00,VWS V14.01,2013-03-30 23:11:00,
2013-03-30 18:12:00,39.4,32.8,28.70,WNW,292,7.8,11.0,77,0.00,,---,0.00,VWS V14.01,2013-03-30 23:12:00,
2013-03-30 18:13:00,39.4,32.8,28.70,WNW,292,10.7,11.0,77,0.00,,---,0.00,VWS V14.01,2013-03-30 23:13:00,
2013-03-30 18:14:00,39.4,33.1,28.70,NW,315,5.6,10.7,78,0.00,,---,0.00,VWS V14.01,2013-03-30 23:14:00,
2013-03-30 18:16:00,39.4,33.1,28.70,NW,315,5.6,10.7,78,0.00,,---,0.00,VWS V14.01,2013-03-30 23:16:00,
2013-03-30 18:18:00,39.4,33.1,28.70,NW,315,7.8,7.8,78,0.00,,---,0.00,VWS V14.01,2013-03-30 23:18:00,
2013-03-30 18:19:00,39.4,33.1,28.70,WNW,292,11.0,11.0,78,0.00,,---,0.00,VWS V14.01,2013-03-30 23:19:00,
2013-03-30 18:20:00,39.4,33.1,28.70,WNW,292,7.8,10.5,78,0.00,,---,0.00,VWS V14.01,2013-03-30 23:20:00,
2013-03-30 18:21:00,39.4,33.1,28.70,WNW,292,10.3,11.0,78,0.00,,---,0.00,VWS V14.01,2013-03-30 23:21:00,
2013-03-30 18:22:00,39.4,33.1,28.70,West,270,6.9,10.3,78,0.00,,---,0.00,VWS V14.01,2013-03-30 23:22:00,
2013-03-30 18:23:00,39.4,33.1,28.70,WNW,292,4.9,6.9,78,0.00,,---,0.00,VWS V14.01,2013-03-30 23:23:00,
2013-03-30 18:24:00,39.4,33.1,28.70,NW,315,5.6,5.8,78,0.00,,---,0.00,VWS V14.01,2013-03-30 23:24:00,
2013-03-30 18:25:00,39.4,33.1,28.70,NW,315,5.6,5.8,78,0.00,,---,0.00,VWS V14.01,2013-03-30 23:25:00,
2013-03-30 18:26:00,39.4,33.1,28.70,NW,315,6.5,7.6,78,0.00,,---,0.00,VWS V14.01,2013-03-30 23:26:00,
2013-03-30 18:27:00,39.4,33.1,28.70,NNW,338,6.5,6.5,78,0.00,,---,0.00,VWS V14.01,2013-03-30 23:27:00,
2013-03-30 18:28:00,39.4,33.1,28.70,WNW,292,9.6,11.2,78,0.00,,---,0.00,VWS V14.01,2013-03-30 23:28:00,
2013-03-30 18:29:00,39.2,32.9,28.70,WNW,292,6.5,7.6,78,0.00,,---,0.00,VWS V14.01,2013-03-30 23:29:00,
2013-03-30 18:30:00,39.2,32.9,28.70,NNW,338,7.6,10.5,78,0.00,,---,0.00,VWS V14.01,2013-03-30 23:30:00,
2013-03-30 18:31:00,39.2,32.9,28.70,WNW,292,6.3,7.6,78,0.00,,---,0.00,VWS V14.01,2013-03-30 23:31:00,
2013-03-30 18:32:00,39.2,32.9,28.70,WNW,292,8.7,8.7,78,0.00,,---,0.00,VWS V14.01,2013-03-30 23:32:00,
2013-03-30 18:33:00,39.2,32.9,28.70,WNW,292,5.8,8.7,78,0.00,,---,0.00,VWS V14.01,2013-03-30 23:33:00,
2013-03-30 18:34:00,39.0,32.8,28.70,NNW,338,6.0,7.8,78,0.00,,---,0.00,VWS V14.01,2013-03-30 23:34:00,
2013-03-30 18:35:00,39.0,32.8,28.70,WNW,292,6.0,7.8,78,0.00,,---,0.00,VWS V14.01,2013-03-30 23:35:00,
2013-03-30 18:36:00,39.0,32.8,28.70,WNW,292,5.8,7.8,78,0.00,,---,0.00,VWS V14.01,2013-03-30 23:36:00,
2013-03-30 18:37:00,39.0,32.8,28.70,NW,315,7.4,7.4,78,0.00,,---,0.00,VWS V14.01,2013-03-30 23:37:00,
2013-03-30 18:38:00,39.0,32.8,28.70,West,270,8.1,8.1,78,0.00,,---,0.00,VWS V14.01,2013-03-30 23:38:00,
2013-03-30 18:39:00,39.0,32.8,28.70,NNW,338,7.4,8.1,78,0.00,,---,0.00,VWS V14.01,2013-03-30 23:39:00,
2013-03-30 18:40:00,38.8,32.6,28.70,WSW,248,5.4,10.1,78,0.00,,---,0.00,VWS V14.01,2013-03-30 23:40:00,
2013-03-30 18:41:00,38.8,32.6,28.70,WSW,248,6.0,10.1,78,0.00,,---,0.00,VWS V14.01,2013-03-30 23:41:00,
2013-03-30 18:43:00,38.8,32.9,28.70,WNW,292,4.9,6.5,79,0.00,,---,0.00,VWS V14.01,2013-03-30 23:43:00,
2013-03-30 18:44:00,38.7,32.7,28.70,NNW,338,4.3,6.5,79,0.00,,---,0.00,VWS V14.01,2013-03-30 23:44:00,
2013-03-30 18:45:00,38.7,32.7,28.70,WNW,292,5.6,6.0,79,0.00,,---,0.00,VWS V14.01,2013-03-30 23:45:00,
2013-03-30 18:46:00,38.7,32.7,28.70,West,270,5.4,6.0,79,0.00,,---,0.00,VWS V14.01,2013-03-30 23:46:00,
2013-03-30 18:47:00,38.7,32.7,28.70,WNW,292,6.5,6.5,79,0.00,,---,0.00,VWS V14.01,2013-03-30 23:47:00,
2013-03-30 18:48:00,38.5,32.5,28.70,West,270,8.1,8.7,79,0.00,,---,0.00,VWS V14.01,2013-03-30 23:48:00,
2013-03-30 18:49:00,38.5,32.5,28.70,NNW,338,7.4,8.1,79,0.00,,---,0.00,VWS V14.01,2013-03-30 23:49:00,
2013-03-30 18:50:00,38.5,32.9,28.70,WSW,248,8.7,12.8,80,0.00,,---,0.00,VWS V14.01,2013-03-30 23:50:00,
2013-03-30 18:51:00,38.3,32.7,28.70,NNW,338,10.3,12.8,80,0.00,,---,0.00,VWS V14.01,2013-03-30 23:51:00,
2013-03-30 18:52:00,38.1,32.5,28.70,WNW,292,10.1,10.3,80,0.00,,---,0.00,VWS V14.01,2013-03-30 23:52:00,
2013-03-30 18:53:00,38.1,32.5,28.70,WNW,292,10.3,10.3,80,0.00,,---,0.00,VWS V14.01,2013-03-30 23:53:00,
2013-03-30 18:54:00,38.1,32.5,28.70,WSW,248,7.6,12.5,80,0.00,,---,0.00,VWS V14.01,2013-03-30 23:54:00,
2013-03-30 18:55:00,38.1,32.5,28.70,WNW,292,9.4,9.4,80,0.00,,---,0.00,VWS V14.01,2013-03-30 23:55:00,
2013-03-30 18:56:00,37.9,32.3,28.70,WNW,292,7.6,9.4,80,0.00,,---,0.00,VWS V14.01,2013-03-30 23:56:00,
2013-03-30 18:57:00,37.8,32.2,28.70,WNW,292,9.8,11.2,80,0.00,,---,0.00,VWS V14.01,2013-03-30 23:57:00,
2013-03-30 18:58:00,37.8,32.2,28.70,NW,315,8.1,9.8,80,0.00,,---,0.00,VWS V14.01,2013-03-30 23:58:00,
2013-03-30 18:59:00,37.6,32.0,28.70,NNW,338,7.8,10.7,80,0.00,,---,0.00,VWS V14.01,2013-03-30 23:59:00,
2013-03-30 19:00:00,37.6,32.3,28.70,WNW,292,9.8,10.7,81,0.00,,---,0.00,VWS V14.01,2013-03-31 00:00:00,
2013-03-30 19:01:00,37.6,32.3,28.70,WNW,292,8.7,10.7,81,0.00,,---,0.00,VWS V14.01,2013-03-31 00:01:00,
2013-03-30 19:02:00,37.4,32.1,28.70,West,270,10.7,10.7,81,0.00,,---,0.00,VWS V14.01,2013-03-31 00:02:00,
2013-03-30 19:03:00,37.4,32.1,28.70,NNW,338,8.1,10.7,81,0.00,,---,0.00,VWS V14.01,2013-03-31 00:03:00,
2013-03-30 19:04:00,37.4,32.1,28.70,NNW,338,6.3,8.7,81,0.00,,---,0.00,VWS V14.01,2013-03-31 00:04:00,
2013-03-30 19:05:00,37.2,32.2,28.70,WNW,292,7.6,8.7,82,0.00,,---,0.00,VWS V14.01,2013-03-31 00:05:00,
2013-03-30 19:06:00,37.2,32.2,28.70,WNW,292,10.3,10.7,82,0.00,,---,0.00,VWS V14.01,2013-03-31 00:06:00,
2013-03-30 19:07:00,37.0,32.1,28.70,WNW,292,10.7,11.2,82,0.00,,---,0.00,VWS V14.01,2013-03-31 00:07:00,
2013-03-30 19:08:00,37.0,32.1,28.70,WSW,248,9.0,10.7,82,0.00,,---,0.00,VWS V14.01,2013-03-31 00:08:00,
2013-03-30 19:09:00,37.0,32.1,28.70,WNW,292,7.4,12.3,82,0.00,,---,0.00,VWS V14.01,2013-03-31 00:09:00,
2013-03-30 19:10:00,37.0,32.4,28.70,NW,315,8.5,8.5,83,0.00,,---,0.00,VWS V14.01,2013-03-31 00:10:00,
2013-03-30 19:11:00,37.0,32.4,28.70,WNW,292,8.5,8.5,83,0.00,,---,0.00,VWS V14.01,2013-03-31 00:11:00,
2013-03-30 19:12:00,36.7,32.0,28.70,WNW,292,12.8,12.8,83,0.00,,---,0.00,VWS V14.01,2013-03-31 00:12:00,
2013-03-30 19:14:00,36.7,32.0,28.70,WNW,292,10.5,12.8,83,0.00,,---,0.00,VWS V14.01,2013-03-31 00:14:00,
2013-03-30 19:15:00,36.7,32.0,28.70,WNW,292,7.4,8.7,83,0.00,,---,0.00,VWS V14.01,2013-03-31 00:15:00,
2013-03-30 19:16:00,36.7,32.0,28.70,WNW,292,7.8,8.7,83,0.00,,---,0.00,VWS V14.01,2013-03-31 00:16:00,
2013-03-30 19:17:00,36.5,32.1,28.70,WNW,292,8.7,14.3,84,0.00,,---,0.00,VWS V14.01,2013-03-31 00:17:00,
2013-03-30 19:18:00,36.5,32.1,28.70,NNW,338,7.6,11.9,84,0.00,,---,0.00,VWS V14.01,2013-03-31 00:18:00,
2013-03-30 19:19:00,36.3,32.0,28.70,WNW,292,10.7,10.7,84,0.00,,---,0.00,VWS V14.01,2013-03-31 00:19:00,
2013-03-30 19:20:00,36.3,32.0,28.70,WNW,292,10.5,11.0,84,0.00,,---,0.00,VWS V14.01,2013-03-31 00:20:00,
2013-03-30 19:21:00,36.1,31.8,28.70,WNW,292,10.5,11.0,84,0.00,,---,0.00,VWS V14.01,2013-03-31 00:21:00,
2013-03-30 19:22:00,36.1,31.8,28.70,West,270,7.4,10.5,84,0.00,,---,0.00,VWS V14.01,2013-03-31 00:22:00,
2013-03-30 19:23:00,36.1,31.8,28.70,NW,315,11.0,11.0,84,0.00,,---,0.00,VWS V14.01,2013-03-31 00:23:00,
2013-03-30 19:24:00,36.0,31.6,28.70,WNW,292,9.8,12.3,84,0.00,,---,0.00,VWS V14.01,2013-03-31 00:24:00,
2013-03-30 19:25:00,36.0,31.6,28.70,WNW,292,8.7,9.8,84,0.00,,---,0.00,VWS V14.01,2013-03-31 00:25:00,
2013-03-30 19:26:00,36.0,31.6,28.70,WNW,292,7.8,8.7,84,0.00,,---,0.00,VWS V14.01,2013-03-31 00:26:00,
2013-03-30 19:27:00,35.8,31.4,28.70,NW,315,6.5,9.6,84,0.00,,---,0.00,VWS V14.01,2013-03-31 00:27:00,
2013-03-30 19:28:00,35.6,31.2,28.70,WNW,292,8.5,8.5,84,0.00,,---,0.00,VWS V14.01,2013-03-31 00:28:00,
2013-03-30 19:29:00,35.6,31.2,28.70,WNW,292,7.6,8.5,84,0.00,,---,0.00,VWS V14.01,2013-03-31 00:29:00,
2013-03-30 19:30:00,35.4,31.4,28.70,WNW,292,8.5,8.5,85,0.00,,---,0.00,VWS V14.01,2013-03-31 00:30:00,
2013-03-30 19:31:00,35.4,31.4,28.70,WNW,292,8.5,8.5,85,0.00,,---,0.00,VWS V14.01,2013-03-31 00:31:00,
2013-03-30 19:32:00,35.4,31.4,28.70,West,270,10.3,13.0,85,0.00,,---,0.00,VWS V14.01,2013-03-31 00:32:00,
2013-03-30 19:34:00,35.4,31.4,28.70,WNW,292,10.3,10.5,85,0.00,,---,0.00,VWS V14.01,2013-03-31 00:34:00,
2013-03-30 19:35:00,35.2,31.5,28.70,WNW,292,7.8,7.8,86,0.00,,---,0.00,VWS V14.01,2013-03-31 00:35:00,
2013-03-30 19:36:00,35.2,31.5,28.70,WNW,292,7.8,7.8,86,0.00,,---,0.00,VWS V14.01,2013-03-31 00:36:00,
2013-03-30 19:37:00,35.1,31.3,28.70,WNW,292,8.1,8.1,86,0.00,,---,0.00,VWS V14.01,2013-03-31 00:37:00,
2013-03-30 19:38:00,35.1,31.3,28.70,West,270,13.2,13.2,86,0.00,,---,0.00,VWS V14.01,2013-03-31 00:38:00,
2013-03-30 19:39:00,35.1,31.3,28.70,WNW,292,10.5,13.2,86,0.00,,---,0.00,VWS V14.01,2013-03-31 00:39:00,
2013-03-30 19:40:00,34.9,31.1,28.70,WNW,292,6.3,8.7,86,0.00,,---,0.00,VWS V14.01,2013-03-31 00:40:00,
2013-03-30 19:41:00,34.9,31.1,28.70,WNW,292,6.5,8.7,86,0.00,,---,0.00,VWS V14.01,2013-03-31 00:41:00,
2013-03-30 19:42:00,34.9,31.1,28.70,WNW,292,6.5,6.5,86,0.00,,---,0.00,VWS V14.01,2013-03-31 00:42:00,
2013-03-30 19:43:00,34.9,31.4,28.70,WNW,292,10.3,12.3,87,0.00,,---,0.00,VWS V14.01,2013-03-31 00:43:00,
2013-03-30 19:44:00,34.9,31.4,28.70,WSW,248,10.1,10.3,87,0.00,,---,0.00,VWS V14.01,2013-03-31 00:44:00,
2013-03-30 19:45:00,34.7,31.2,28.70,NW,315,12.8,15.2,87,0.00,,---,0.00,VWS V14.01,2013-03-31 00:45:00,
2013-03-30 19:46:00,34.7,31.2,28.70,WNW,292,8.5,15.2,87,0.00,,---,0.00,VWS V14.01,2013-03-31 00:46:00,
2013-03-30 19:47:00,34.7,31.2,28.70,WNW,292,10.1,10.1,87,0.00,,---,0.00,VWS V14.01,2013-03-31 00:47:00,
2013-03-30 19:49:00,34.5,31.1,28.70,WNW,292,8.5,10.5,87,0.00,,---,0.00,VWS V14.01,2013-03-31 00:49:00,
2013-03-30 19:50:00,34.5,31.1,28.70,WNW,292,8.7,11.0,87,0.00,,---,0.00,VWS V14.01,2013-03-31 00:50:00,
2013-03-30 19:51:00,34.5,31.1,28.70,WNW,292,8.7,11.0,87,0.00,,---,0.00,VWS V14.01,2013-03-31 00:51:00,
2013-03-30 19:52:00,34.5,31.1,28.70,WNW,292,12.1,12.1,87,0.00,,---,0.00,VWS V14.01,2013-03-31 00:52:00,
2013-03-30 19:53:00,34.5,31.1,28.70,WNW,292,11.0,12.1,87,0.00,,---,0.00,VWS V14.01,2013-03-31 00:53:00,
2013-03-30 19:54:00,34.3,31.2,28.70,WNW,292,10.7,11.0,88,0.00,,---,0.00,VWS V14.01,2013-03-31 00:54:00,
2013-03-30 19:55:00,34.3,31.2,28.70,WNW,292,10.7,10.7,88,0.00,,---,0.00,VWS V14.01,2013-03-31 00:55:00,
2013-03-30 19:56:00,34.3,31.2,28.70,WNW,292,7.4,10.7,88,0.00,,---,0.00,VWS V14.01,2013-03-31 00:56:00,
2013-03-30 19:57:00,34.2,31.0,28.70,West,270,11.0,11.0,88,0.00,,---,0.00,VWS V14.01,2013-03-31 00:57:00,
2013-03-30 19:58:00,34.2,31.0,28.70,NW,315,11.0,11.0,88,0.00,,---,0.00,VWS V14.01,2013-03-31 00:58:00,
2013-03-30 19:59:00,34.2,31.0,28.70,WNW,292,10.7,12.1,88,0.00,,---,0.00,VWS V14.01,2013-03-31 00:59:00,
2013-03-30 20:00:00,34.0,30.8,28.70,West,270,10.1,10.5,88,0.00,,---,0.00,VWS V14.01,2013-03-31 01:00:00,
2013-03-30 20:01:00,34.0,30.8,28.70,WNW,292,7.8,10.5,88,0.00,,---,0.00,VWS V14.01,2013-03-31 01:01:00,
2013-03-30 20:02:00,34.0,30.8,28.70,WNW,292,11.4,11.4,88,0.00,,---,0.00,VWS V14.01,2013-03-31 01:02:00,
2013-03-30 20:03:00,34.0,30.8,28.70,WNW,292,10.1,11.4,88,0.00,,---,0.00,VWS V14.01,2013-03-31 01:03:00,
2013-03-30 20:04:00,34.0,30.8,28.70,WNW,292,10.3,12.3,88,0.00,,---,0.00,VWS V14.01,2013-03-31 01:04:00,
2013-03-30 20:05:00,33.8,30.6,28.70,NNW,338,10.5,10.5,88,0.00,,---,0.00,VWS V14.01,2013-03-31 01:05:00,
2013-03-30 20:06:00,33.8,30.6,28.70,WNW,292,8.5,10.5,88,0.00,,---,0.00,VWS V14.01,2013-03-31 01:06:00,
2013-03-30 20:07:00,33.8,30.6,28.70,WNW,292,7.6,10.7,88,0.00,,---,0.00,VWS V14.01,2013-03-31 01:07:00,
2013-03-30 20:08:00,33.8,30.6,28.70,WNW,292,8.5,9.8,88,0.00,,---,0.00,VWS V14.01,2013-03-31 01:08:00,
2013-03-30 20:09:00,33.8,30.9,28.73,WNW,292,8.1,8.5,89,0.00,,---,0.00,VWS V14.01,2013-03-31 01:09:00,
2013-03-30 20:10:00,33.6,30.7,28.73,WNW,292,8.1,8.1,89,0.00,,---,0.00,VWS V14.01,2013-03-31 01:10:00,
2013-03-30 20:11:00,33.6,30.7,28.73,WNW,292,10.5,10.5,89,0.00,,---,0.00,VWS V14.01,2013-03-31 01:11:00,
2013-03-30 20:12:00,33.6,30.7,28.73,NW,315,10.5,11.0,89,0.00,,---,0.00,VWS V14.01,2013-03-31 01:12:00,
2013-03-30 20:13:00,33.6,30.7,28.73,WNW,292,6.5,10.5,89,0.00,,---,0.00,VWS V14.01,2013-03-31 01:13:00,
2013-03-30 20:14:00,33.6,30.7,28.73,West,270,8.1,8.7,89,0.00,,---,0.00,VWS V14.01,2013-03-31 01:14:00,
2013-03-30 20:15:00,33.6,30.7,28.73,WNW,292,6.5,8.1,89,0.00,,---,0.00,VWS V14.01,2013-03-31 01:15:00,
2013-03-30 20:16:00,33.6,30.7,28.73,NW,315,8.1,8.1,89,0.00,,---,0.00,VWS V14.01,2013-03-31 01:16:00,
2013-03-30 20:17:00,33.6,30.7,28.73,West,270,10.3,10.3,89,0.00,,---,0.00,VWS V14.01,2013-03-31 01:17:00,
2013-03-30 20:18:00,33.6,30.7,28.73,WSW,248,12.1,12.1,89,0.00,,---,0.00,VWS V14.01,2013-03-31 01:18:00,
2013-03-30 20:19:00,33.4,30.5,28.73,WNW,292,5.6,12.1,89,0.00,,---,0.00,VWS V14.01,2013-03-31 01:19:00,
2013-03-30 20:20:00,33.4,30.5,28.73,NW,315,7.6,10.5,89,0.00,,---,0.00,VWS V14.01,2013-03-31 01:20:00,
2013-03-30 20:21:00,33.4,30.5,28.73,NW,315,7.6,10.5,89,0.00,,---,0.00,VWS V14.01,2013-03-31 01:21:00,
2013-03-30 20:22:00,33.4,30.5,28.73,WNW,292,3.8,7.6,89,0.00,,---,0.00,VWS V14.01,2013-03-31 01:22:00,
2013-03-30 20:23:00,33.4,30.5,28.73,WNW,292,9.4,9.4,89,0.00,,---,0.00,VWS V14.01,2013-03-31 01:23:00,
2013-03-30 20:24:00,33.4,30.5,28.70,WNW,292,8.1,9.8,89,0.00,,---,0.00,VWS V14.01,2013-03-31 01:24:00,
2013-03-30 20:25:00,33.3,30.4,28.70,WNW,292,5.8,6.3,89,0.00,,---,0.00,VWS V14.01,2013-03-31 01:25:00,
2013-03-30 20:27:00,33.3,30.4,28.70,WSW,248,8.5,8.5,89,0.00,,---,0.00,VWS V14.01,2013-03-31 01:27:00,
2013-03-30 20:28:00,33.3,30.4,28.70,WNW,292,7.4,8.7,89,0.00,,---,0.00,VWS V14.01,2013-03-31 01:28:00,
2013-03-30 20:29:00,33.3,30.4,28.70,WNW,292,7.4,10.5,89,0.00,,---,0.00,VWS V14.01,2013-03-31 01:29:00,
2013-03-30 20:30:00,33.3,30.6,28.70,West,270,7.6,9.6,90,0.00,,---,0.00,VWS V14.01,2013-03-31 01:30:00,
2013-03-30 20:31:00,33.3,30.6,28.70,West,270,7.6,9.6,90,0.00,,---,0.00,VWS V14.01,2013-03-31 01:31:00,
2013-03-30 20:32:00,33.3,30.6,28.70,West,270,5.4,8.7,90,0.00,,---,0.00,VWS V14.01,2013-03-31 01:32:00,
2013-03-30 20:33:00,33.3,30.6,28.70,WNW,292,7.8,10.5,90,0.00,,---,0.00,VWS V14.01,2013-03-31 01:33:00,
2013-03-30 20:34:00,33.3,30.6,28.70,WNW,292,5.8,10.1,90,0.00,,---,0.00,VWS V14.01,2013-03-31 01:34:00,
2013-03-30 20:35:00,33.3,30.6,28.70,NNW,338,8.7,8.7,90,0.00,,---,0.00,VWS V14.01,2013-03-31 01:35:00,
2013-03-30 20:36:00,33.3,30.6,28.70,WNW,292,5.8,8.7,90,0.00,,---,0.00,VWS V14.01,2013-03-31 01:36:00,
2013-03-30 20:37:00,33.3,30.6,28.70,WNW,292,4.0,6.3,90,0.00,,---,0.00,VWS V14.01,2013-03-31 01:37:00,
2013-03-30 20:38:00,33.3,30.6,28.70,WNW,292,5.8,6.3,90,0.00,,---,0.00,VWS V14.01,2013-03-31 01:38:00,
2013-03-30 20:39:00,33.3,30.6,28.70,WNW,292,7.4,8.5,90,0.00,,---,0.00,VWS V14.01,2013-03-31 01:39:00,
2013-03-30 20:40:00,33.1,30.5,28.70,WNW,292,9.6,9.6,90,0.00,,---,0.00,VWS V14.01,2013-03-31 01:40:00,
2013-03-30 20:41:00,33.1,30.5,28.70,WNW,292,9.6,9.6,90,0.00,,---,0.00,VWS V14.01,2013-03-31 01:41:00,
2013-03-30 20:42:00,33.1,30.5,28.70,WNW,292,6.5,9.6,90,0.00,,---,0.00,VWS V14.01,2013-03-31 01:42:00,
2013-03-30 20:43:00,33.1,30.5,28.70,WNW,292,4.9,7.6,90,0.00,,---,0.00,VWS V14.01,2013-03-31 01:43:00,
2013-03-30 20:44:00,33.1,30.5,28.70,West,270,5.8,6.0,90,0.00,,---,0.00,VWS V14.01,2013-03-31 01:44:00,
2013-03-30 20:45:00,33.1,30.5,28.70,WNW,292,7.4,8.7,90,0.00,,---,0.00,VWS V14.01,2013-03-31 01:45:00,
2013-03-30 20:46:00,33.1,30.5,28.70,WNW,292,7.4,8.7,90,0.00,,---,0.00,VWS V14.01,2013-03-31 01:46:00,
2013-03-30 20:47:00,33.1,30.5,28.70,WNW,292,7.4,7.4,90,0.00,,---,0.00,VWS V14.01,2013-03-31 01:47:00,
2013-03-30 20:48:00,33.1,30.5,28.70,WNW,292,4.9,9.6,90,0.00,,---,0.00,VWS V14.01,2013-03-31 01:48:00,
2013-03-30 20:49:00,33.1,30.5,28.70,NW,315,5.8,7.2,90,0.00,,---,0.00,VWS V14.01,2013-03-31 01:49:00,
2013-03-30 20:50:00,33.1,30.5,28.70,WNW,292,7.4,7.8,90,0.00,,---,0.00,VWS V14.01,2013-03-31 01:50:00,
2013-03-30 20:51:00,32.9,30.3,28.70,WNW,292,6.5,7.4,90,0.00,,---,0.00,VWS V14.01,2013-03-31 01:51:00,
2013-03-30 20:52:00,32.9,30.3,28.70,WNW,292,6.5,7.8,90,0.00,,---,0.00,VWS V14.01,2013-03-31 01:52:00,
2013-03-30 20:53:00,32.7,30.1,28.70,WNW,292,8.7,8.7,90,0.00,,---,0.00,VWS V14.01,2013-03-31 01:53:00,
2013-03-30 20:54:00,32.7,30.1,28.70,WNW,292,9.0,9.0,90,0.00,,---,0.00,VWS V14.01,2013-03-31 01:54:00,
2013-03-30 20:55:00,32.7,30.1,28.70,WNW,292,7.6,8.7,90,0.00,,---,0.00,VWS V14.01,2013-03-31 01:55:00,
2013-03-30 20:56:00,32.7,30.1,28.70,WNW,292,7.6,8.7,90,0.00,,---,0.00,VWS V14.01,2013-03-31 01:56:00,
2013-03-30 20:57:00,32.7,30.1,28.70,WNW,292,7.6,7.6,90,0.00,,---,0.00,VWS V14.01,2013-03-31 01:57:00,
2013-03-30 20:58:00,32.7,30.1,28.70,WNW,292,6.3,8.5,90,0.00,,---,0.00,VWS V14.01,2013-03-31 01:58:00,
2013-03-30 20:59:00,32.7,30.1,28.70,WNW,292,6.5,8.5,90,0.00,,---,0.00,VWS V14.01,2013-03-31 01:59:00,
2013-03-30 21:00:00,32.7,30.1,28.70,NW,315,8.5,8.5,90,0.00,,---,0.00,VWS V14.01,2013-03-31 02:00:00,
2013-03-30 21:01:00,32.7,30.1,28.70,NNW,338,7.4,8.5,90,0.00,,---,0.00,VWS V14.01,2013-03-31 02:01:00,
2013-03-30 21:02:00,32.7,30.1,28.70,WNW,292,7.6,9.8,90,0.00,,---,0.00,VWS V14.01,2013-03-31 02:02:00,
2013-03-30 21:03:00,32.7,30.1,28.70,WNW,292,7.4,10.3,90,0.00,,---,0.00,VWS V14.01,2013-03-31 02:03:00,
2013-03-30 21:04:00,32.7,30.1,28.70,WNW,292,8.1,11.0,90,0.00,,---,0.00,VWS V14.01,2013-03-31 02:04:00,
2013-03-30 21:05:00,32.7,30.1,28.70,WNW,292,5.8,10.7,90,0.00,,---,0.00,VWS V14.01,2013-03-31 02:05:00,
2013-03-30 21:06:00,32.7,30.1,28.70,WNW,292,5.8,10.7,90,0.00,,---,0.00,VWS V14.01,2013-03-31 02:06:00,
2013-03-30 21:07:00,32.7,30.1,28.70,WNW,292,5.8,5.8,90,0.00,,---,0.00,VWS V14.01,2013-03-31 02:07:00,
2013-03-30 21:08:00,32.7,30.4,28.70,WNW,292,9.6,9.6,91,0.00,,---,0.00,VWS V14.01,2013-03-31 02:08:00,
2013-03-30 21:10:00,32.7,30.4,28.73,WNW,292,4.9,6.5,91,0.00,,---,0.00,VWS V14.01,2013-03-31 02:10:00,
2013-03-30 21:11:00,32.7,30.4,28.73,WSW,248,5.4,6.5,91,0.00,,---,0.00,VWS V14.01,2013-03-31 02:11:00,
2013-03-30 21:12:00,32.7,30.4,28.73,WNW,292,7.8,10.1,91,0.00,,---,0.00,VWS V14.01,2013-03-31 02:12:00,
2013-03-30 21:13:00,32.7,30.4,28.73,WNW,292,6.0,8.7,91,0.00,,---,0.00,VWS V14.01,2013-03-31 02:13:00,
2013-03-30 21:14:00,32.7,30.4,28.73,WNW,292,5.6,8.5,91,0.00,,---,0.00,VWS V14.01,2013-03-31 02:14:00,
2013-03-30 21:15:00,32.7,30.7,28.73,WNW,292,5.6,6.5,92,0.00,,---,0.00,VWS V14.01,2013-03-31 02:15:00,
2013-03-30 21:16:00,32.7,30.7,28.73,WNW,292,5.6,6.5,92,0.00,,---,0.00,VWS V14.01,2013-03-31 02:16:00,
2013-03-30 21:17:00,32.7,30.7,28.73,NW,315,8.5,8.5,92,0.00,,---,0.00,VWS V14.01,2013-03-31 02:17:00,
2013-03-30 21:18:00,32.7,30.7,28.73,WNW,292,8.7,8.7,92,0.00,,---,0.00,VWS V14.01,2013-03-31 02:18:00,
2013-03-30 21:19:00,32.7,30.7,28.73,NW,315,9.0,9.0,92,0.00,,---,0.00,VWS V14.01,2013-03-31 02:19:00,
2013-03-30 21:20:00,32.7,30.7,28.73,WNW,292,5.8,10.1,92,0.00,,---,0.00,VWS V14.01,2013-03-31 02:20:00,
2013-03-30 21:21:00,32.7,30.7,28.73,WNW,292,5.8,10.1,92,0.00,,---,0.00,VWS V14.01,2013-03-31 02:21:00,
2013-03-30 21:22:00,32.7,30.7,28.73,WSW,248,5.6,5.8,92,0.00,,---,0.00,VWS V14.01,2013-03-31 02:22:00,
2013-03-30 21:23:00,32.5,30.5,28.73,WSW,248,5.4,6.3,92,0.00,,---,0.00,VWS V14.01,2013-03-31 02:23:00,
2013-03-30 21:24:00,32.5,30.5,28.70,West,270,7.2,7.2,92,0.00,,---,0.00,VWS V14.01,2013-03-31 02:24:00,
2013-03-30 21:25:00,32.5,30.5,28.70,NNW,338,7.4,9.0,92,0.00,,---,0.00,VWS V14.01,2013-03-31 02:25:00,
2013-03-30 21:26:00,32.5,30.5,28.70,NNW,338,7.4,9.0,92,0.00,,---,0.00,VWS V14.01,2013-03-31 02:26:00,
2013-03-30 21:27:00,32.5,30.5,28.70,NNW,338,6.3,7.4,92,0.00,,---,0.00,VWS V14.01,2013-03-31 02:27:00,
2013-03-30 21:28:00,32.5,30.5,28.70,SW,225,6.3,7.6,92,0.00,,---,0.00,VWS V14.01,2013-03-31 02:28:00,
2013-03-30 21:29:00,32.5,30.5,28.70,NW,315,7.6,7.8,92,0.00,,---,0.00,VWS V14.01,2013-03-31 02:29:00,
2013-03-30 21:30:00,32.5,30.5,28.70,WNW,292,6.0,6.0,92,0.00,,---,0.00,VWS V14.01,2013-03-31 02:30:00,
2013-03-30 21:31:00,32.5,30.5,28.70,WNW,292,6.0,6.0,92,0.00,,---,0.00,VWS V14.01,2013-03-31 02:31:00,
2013-03-30 21:32:00,32.5,30.5,28.70,WNW,292,5.6,6.0,92,0.00,,---,0.00,VWS V14.01,2013-03-31 02:32:00,
2013-03-30 21:33:00,32.5,30.5,28.70,SW,225,5.6,5.6,92,0.00,,---,0.00,VWS V14.01,2013-03-31 02:33:00,
2013-03-30 21:34:00,32.5,30.5,28.70,WNW,292,7.6,7.6,92,0.00,,---,0.00,VWS V14.01,2013-03-31 02:34:00,
2013-03-30 21:35:00,32.5,30.5,28.70,WNW,292,5.6,7.4,92,0.00,,---,0.00,VWS V14.01,2013-03-31 02:35:00,
2013-03-30 21:36:00,32.5,30.5,28.70,WNW,292,5.6,7.4,92,0.00,,---,0.00,VWS V14.01,2013-03-31 02:36:00,
2013-03-30 21:37:00,32.5,30.5,28.70,WNW,292,4.3,7.6,92,0.00,,---,0.00,VWS V14.01,2013-03-31 02:37:00,
2013-03-30 21:38:00,32.5,30.5,28.70,WNW,292,7.4,8.5,92,0.00,,---,0.00,VWS V14.01,2013-03-31 02:38:00,
2013-03-30 21:39:00,32.5,30.5,28.70,WNW,292,7.4,7.4,92,0.00,,---,0.00,VWS V14.01,2013-03-31 02:39:00,
2013-03-30 21:40:00,32.5,30.5,28.70,WNW,292,7.8,7.8,92,0.00,,---,0.00,VWS V14.01,2013-03-31 02:40:00,
2013-03-30 21:41:00,32.5,30.5,28.70,WNW,292,6.3,8.7,92,0.00,,---,0.00,VWS V14.01,2013-03-31 02:41:00,
2013-03-30 21:42:00,32.5,30.5,28.70,WNW,292,7.6,8.5,92,0.00,,---,0.00,VWS V14.01,2013-03-31 02:42:00,
2013-03-30 21:43:00,32.5,30.7,28.70,WNW,292,6.3,8.5,93,0.00,,---,0.00,VWS V14.01,2013-03-31 02:43:00,
2013-03-30 21:44:00,32.5,30.7,28.70,WNW,292,6.5,7.8,93,0.00,,---,0.00,VWS V14.01,2013-03-31 02:44:00,
2013-03-30 21:45:00,32.5,30.7,28.70,WNW,292,7.6,7.6,93,0.00,,---,0.00,VWS V14.01,2013-03-31 02:45:00,
2013-03-30 21:46:00,32.5,30.7,28.70,WNW,292,7.6,7.6,93,0.00,,---,0.00,VWS V14.01,2013-03-31 02:46:00,
2013-03-30 21:47:00,32.5,30.7,28.70,WSW,248,6.0,8.5,93,0.00,,---,0.00,VWS V14.01,2013-03-31 02:47:00,
2013-03-30 21:48:00,32.4,30.6,28.70,WNW,292,10.1,11.2,93,0.00,,---,0.00,VWS V14.01,2013-03-31 02:48:00,
2013-03-30 21:50:00,32.5,30.7,28.70,WNW,292,5.8,5.8,93,0.00,,---,0.00,VWS V14.01,2013-03-31 02:50:00,
2013-03-30 21:51:00,32.5,30.7,28.70,WNW,292,5.8,7.6,93,0.00,,---,0.00,VWS V14.01,2013-03-31 02:51:00,
2013-03-30 21:52:00,32.5,30.7,28.70,NNW,338,6.5,7.4,93,0.00,,---,0.00,VWS V14.01,2013-03-31 02:52:00,
2013-03-30 21:53:00,32.5,30.7,28.70,WNW,292,3.4,7.2,93,0.00,,---,0.00,VWS V14.01,2013-03-31 02:53:00,
2013-03-30 21:54:00,32.4,30.6,28.73,NW,315,5.8,6.5,93,0.00,,---,0.00,VWS V14.01,2013-03-31 02:54:00,
2013-03-30 21:55:00,32.4,30.6,28.73,WNW,292,6.0,7.4,93,0.00,,---,0.00,VWS V14.01,2013-03-31 02:55:00,
2013-03-30 21:56:00,32.4,30.6,28.73,WSW,248,7.4,7.4,93,0.00,,---,0.00,VWS V14.01,2013-03-31 02:56:00,
2013-03-30 21:57:00,32.4,30.6,28.73,WNW,292,6.0,8.5,93,0.00,,---,0.00,VWS V14.01,2013-03-31 02:57:00,
2013-03-30 21:58:00,32.4,30.6,28.73,WNW,292,5.8,7.6,93,0.00,,---,0.00,VWS V14.01,2013-03-31 02:58:00,
2013-03-30 22:00:00,32.2,30.1,28.73,WNW,292,6.0,6.7,92,0.00,,---,0.00,VWS V14.01,2013-03-31 03:00:00,
2013-03-30 22:01:00,32.2,30.1,28.73,WNW,292,6.7,7.4,92,0.00,,---,0.00,VWS V14.01,2013-03-31 03:01:00,
2013-03-30 22:02:00,32.2,30.1,28.73,WNW,292,5.8,6.7,92,0.00,,---,0.00,VWS V14.01,2013-03-31 03:02:00,
2013-03-30 22:03:00,32.2,30.1,28.73,SW,225,6.3,6.5,92,0.00,,---,0.00,VWS V14.01,2013-03-31 03:03:00,
2013-03-30 22:04:00,32.2,30.1,28.73,NW,315,5.8,6.5,92,0.00,,---,0.00,VWS V14.01,2013-03-31 03:04:00,
2013-03-30 22:05:00,32.4,30.6,28.73,WNW,292,7.6,7.6,93,0.00,,---,0.00,VWS V14.01,2013-03-31 03:05:00,
2013-03-30 22:06:00,32.4,30.6,28.73,WNW,292,4.5,6.5,93,0.00,,---,0.00,VWS V14.01,2013-03-31 03:06:00,
2013-03-30 22:07:00,32.4,30.6,28.73,WSW,248,3.4,7.6,93,0.00,,---,0.00,VWS V14.01,2013-03-31 03:07:00,
2013-03-30 22:08:00,32.4,30.6,28.73,WNW,292,6.5,6.5,93,0.00,,---,0.00,VWS V14.01,2013-03-31 03:08:00,
2013-03-30 22:09:00,32.4,30.6,28.73,WNW,292,4.0,6.5,93,0.00,,---,0.00,VWS V14.01,2013-03-31 03:09:00,
2013-03-30 22:10:00,32.4,30.6,28.73,West,270,3.6,4.0,93,0.00,,---,0.00,VWS V14.01,2013-03-31 03:10:00,
2013-03-30 22:11:00,32.4,30.6,28.73,WNW,292,4.0,6.3,93,0.00,,---,0.00,VWS V14.01,2013-03-31 03:11:00,
2013-03-30 22:12:00,32.4,30.6,28.73,WNW,292,3.1,5.4,93,0.00,,---,0.00,VWS V14.01,2013-03-31 03:12:00,
2013-03-30 22:13:00,32.4,30.6,28.73,WNW,292,6.5,6.5,93,0.00,,---,0.00,VWS V14.01,2013-03-31 03:13:00,
2013-03-30 22:14:00,32.4,30.6,28.73,NW,315,6.5,7.6,93,0.00,,---,0.00,VWS V14.01,2013-03-31 03:14:00,
2013-03-30 22:15:00,32.4,30.6,28.73,WNW,292,4.3,4.3,93,0.00,,---,0.00,VWS V14.01,2013-03-31 03:15:00,
2013-03-30 22:16:00,32.4,30.6,28.73,WNW,292,3.8,4.9,93,0.00,,---,0.00,VWS V14.01,2013-03-31 03:16:00,
2013-03-30 22:17:00,32.4,30.6,28.73,WNW,292,3.8,4.9,93,0.00,,---,0.00,VWS V14.01,2013-03-31 03:17:00,
2013-03-30 22:18:00,32.4,30.6,28.73,West,270,6.5,6.5,93,0.00,,---,0.00,VWS V14.01,2013-03-31 03:18:00,
2013-03-30 22:19:00,32.4,30.6,28.73,NNW,338,2.9,6.5,93,0.00,,---,0.00,VWS V14.01,2013-03-31 03:19:00,
2013-03-30 22:20:00,32.4,30.6,28.73,WSW,248,3.4,3.4,93,0.00,,---,0.00,VWS V14.01,2013-03-31 03:20:00,
2013-03-30 22:21:00,32.4,30.6,28.73,WSW,248,3.4,6.3,93,0.00,,---,0.00,VWS V14.01,2013-03-31 03:21:00,
2013-03-30 22:22:00,32.4,30.6,28.73,WNW,292,4.0,4.7,93,0.00,,---,0.00,VWS V14.01,2013-03-31 03:22:00,
2013-03-30 22:23:00,32.4,30.6,28.73,WSW,248,3.8,5.4,93,0.00,,---,0.00,VWS V14.01,2013-03-31 03:23:00,
2013-03-30 22:24:00,32.4,30.6,28.73,WNW,292,6.0,6.0,93,0.00,,---,0.00,VWS V14.01,2013-03-31 03:24:00,
2013-03-30 22:25:00,32.4,30.6,28.73,WSW,248,3.6,3.6,93,0.00,,---,0.00,VWS V14.01,2013-03-31 03:25:00,
2013-03-30 22:26:00,32.4,30.6,28.73,WSW,248,3.1,4.0,93,0.00,,---,0.00,VWS V14.01,2013-03-31 03:26:00,
2013-03-30 22:27:00,32.4,30.6,28.73,West,270,4.9,4.9,93,0.00,,---,0.00,VWS V14.01,2013-03-31 03:27:00,
2013-03-30 22:28:00,32.2,30.4,28.73,WNW,292,4.9,5.6,93,0.00,,---,0.00,VWS V14.01,2013-03-31 03:28:00,
2013-03-30 22:29:00,32.2,30.4,28.73,WNW,292,5.6,5.6,93,0.00,,---,0.00,VWS V14.01,2013-03-31 03:29:00,
2013-03-30 22:30:00,32.2,30.4,28.73,WNW,292,3.4,4.3,93,0.00,,---,0.00,VWS V14.01,2013-03-31 03:30:00,
2013-03-30 22:31:00,32.2,30.4,28.73,NW,315,3.1,5.8,93,0.00,,---,0.00,VWS V14.01,2013-03-31 03:31:00,
2013-03-30 22:32:00,32.2,30.4,28.73,WNW,292,3.8,4.3,93,0.00,,---,0.00,VWS V14.01,2013-03-31 03:32:00,
2013-03-30 22:33:00,32.2,30.4,28.73,WNW,292,4.3,4.3,93,0.00,,---,0.00,VWS V14.01,2013-03-31 03:33:00,
2013-03-30 22:34:00,32.0,29.9,28.73,WNW,292,5.6,5.6,92,0.00,,---,0.00,VWS V14.01,2013-03-31 03:34:00,
2013-03-30 22:35:00,32.0,29.9,28.73,NW,315,5.6,5.6,92,0.00,,---,0.00,VWS V14.01,2013-03-31 03:35:00,
2013-03-30 22:36:00,32.0,29.9,28.73,NW,315,4.0,6.0,92,0.00,,---,0.00,VWS V14.01,2013-03-31 03:36:00,
2013-03-30 22:37:00,32.0,29.9,28.73,NW,315,4.3,6.3,92,0.00,,---,0.00,VWS V14.01,2013-03-31 03:37:00,
2013-03-30 22:38:00,32.0,29.9,28.73,NW,315,4.3,5.4,92,0.00,,---,0.00,VWS V14.01,2013-03-31 03:38:00,
2013-03-30 22:39:00,32.0,29.9,28.73,NNW,338,4.9,4.9,92,0.00,,---,0.00,VWS V14.01,2013-03-31 03:39:00,
2013-03-30 22:40:00,32.0,29.9,28.70,West,270,4.9,5.6,92,0.00,,---,0.00,VWS V14.01,2013-03-31 03:40:00,
2013-03-30 22:41:00,32.0,29.9,28.70,WSW,248,5.6,5.6,92,0.00,,---,0.00,VWS V14.01,2013-03-31 03:41:00,
2013-03-30 22:42:00,32.0,29.9,28.70,NW,315,5.4,6.3,92,0.00,,---,0.00,VWS V14.01,2013-03-31 03:42:00,
2013-03-30 22:43:00,32.0,29.9,28.70,WNW,292,5.4,6.3,92,0.00,,---,0.00,VWS V14.01,2013-03-31 03:43:00,
2013-03-30 22:44:00,32.0,29.9,28.70,West,270,5.6,6.0,92,0.00,,---,0.00,VWS V14.01,2013-03-31 03:44:00,
2013-03-30 22:45:00,32.0,29.9,28.70,NW,315,6.5,6.5,92,0.00,,---,0.00,VWS V14.01,2013-03-31 03:45:00,
2013-03-30 22:47:00,32.0,29.9,28.70,NW,315,6.5,6.5,92,0.00,,---,0.00,VWS V14.01,2013-03-31 03:47:00,
2013-03-30 22:48:00,31.8,29.8,28.70,WNW,292,4.3,6.5,92,0.00,,---,0.00,VWS V14.01,2013-03-31 03:48:00,
2013-03-30 22:49:00,31.8,29.8,28.70,WNW,292,5.8,6.3,92,0.00,,---,0.00,VWS V14.01,2013-03-31 03:49:00,
2013-03-30 22:50:00,31.8,29.8,28.70,NNW,338,6.3,6.3,92,0.00,,---,0.00,VWS V14.01,2013-03-31 03:50:00,
2013-03-30 22:51:00,31.8,29.8,28.70,NNW,338,6.3,7.6,92,0.00,,---,0.00,VWS V14.01,2013-03-31 03:51:00,
2013-03-30 22:52:00,31.8,29.8,28.70,NNW,338,6.3,6.3,92,0.00,,---,0.00,VWS V14.01,2013-03-31 03:52:00,
2013-03-30 22:53:00,31.8,30.0,28.70,WNW,292,6.3,6.3,93,0.00,,---,0.00,VWS V14.01,2013-03-31 03:53:00,
2013-03-30 22:54:00,32.0,30.2,28.73,WNW,292,4.9,6.5,93,0.00,,---,0.00,VWS V14.01,2013-03-31 03:54:00,
2013-03-30 22:55:00,32.0,30.2,28.73,WNW,292,5.4,6.0,93,0.00,,---,0.00,VWS V14.01,2013-03-31 03:55:00,
2013-03-30 22:56:00,32.0,30.2,28.73,WNW,292,6.0,7.4,93,0.00,,---,0.00,VWS V14.01,2013-03-31 03:56:00,
2013-03-30 22:57:00,32.0,30.2,28.73,NNW,338,5.4,6.5,93,0.00,,---,0.00,VWS V14.01,2013-03-31 03:57:00,
2013-03-30 22:58:00,32.0,30.2,28.73,WNW,292,5.4,5.4,93,0.00,,---,0.00,VWS V14.01,2013-03-31 03:58:00,
2013-03-30 22:59:00,32.0,30.2,28.73,NW,315,7.2,7.2,93,0.00,,---,0.00,VWS V14.01,2013-03-31 03:59:00,
2013-03-30 23:00:00,32.2,30.4,28.73,NNW,338,8.5,8.5,93,0.00,,---,0.00,VWS V14.01,2013-03-31 04:00:00,
2013-03-30 23:01:00,32.2,30.4,28.73,West,270,8.5,9.6,93,0.00,,---,0.00,VWS V14.01,2013-03-31 04:01:00,
2013-03-30 23:02:00,32.2,30.4,28.73,WNW,292,8.7,10.5,93,0.00,,---,0.00,VWS V14.01,2013-03-31 04:02:00,
2013-03-30 23:03:00,32.2,30.6,28.73,WNW,292,9.6,9.6,94,0.00,,---,0.00,VWS V14.01,2013-03-31 04:03:00,
2013-03-30 23:04:00,32.2,30.6,28.73,WNW,292,7.6,9.6,94,0.00,,---,0.00,VWS V14.01,2013-03-31 04:04:00,
2013-03-30 23:05:00,32.2,30.6,28.73,WNW,292,6.3,7.6,94,0.00,,---,0.00,VWS V14.01,2013-03-31 04:05:00,
2013-03-30 23:06:00,32.4,30.8,28.73,West,270,7.2,9.0,94,0.00,,---,0.00,VWS V14.01,2013-03-31 04:06:00,
2013-03-30 23:07:00,32.4,30.8,28.73,WNW,292,10.7,10.7,94,0.00,,---,0.00,VWS V14.01,2013-03-31 04:07:00,
2013-03-30 23:08:00,32.4,30.8,28.73,WNW,292,7.4,10.7,94,0.00,,---,0.00,VWS V14.01,2013-03-31 04:08:00,
2013-03-30 23:09:00,32.4,30.8,28.73,WNW,292,7.4,7.4,94,0.00,,---,0.00,VWS V14.01,2013-03-31 04:09:00,
2013-03-30 23:10:00,32.5,31.3,28.73,NW,315,5.6,7.4,95,0.00,,---,0.00,VWS V14.01,2013-03-31 04:10:00,
2013-03-30 23:11:00,32.5,31.3,28.73,NW,315,5.6,5.6,95,0.00,,---,0.00,VWS V14.01,2013-03-31 04:11:00,
2013-03-30 23:12:00,32.5,31.3,28.73,NW,315,9.6,9.6,95,0.00,,---,0.00,VWS V14.01,2013-03-31 04:12:00,
2013-03-30 23:13:00,32.5,31.3,28.73,NNW,338,11.0,11.0,95,0.00,,---,0.00,VWS V14.01,2013-03-31 04:13:00,
2013-03-30 23:14:00,32.5,31.3,28.73,WNW,292,10.7,11.0,95,0.00,,---,0.00,VWS V14.01,2013-03-31 04:14:00,
2013-03-30 23:15:00,32.5,31.3,28.73,WNW,292,8.7,12.1,95,0.00,,---,0.00,VWS V14.01,2013-03-31 04:15:00,
2013-03-30 23:16:00,32.5,31.3,28.73,NNW,338,7.6,9.8,95,0.00,,---,0.00,VWS V14.01,2013-03-31 04:16:00,
2013-03-30 23:17:00,32.5,31.3,28.73,WNW,292,8.1,9.8,95,0.00,,---,0.00,VWS V14.01,2013-03-31 04:17:00,
2013-03-30 23:18:00,32.5,31.3,28.73,West,270,11.2,11.2,95,0.00,,---,0.00,VWS V14.01,2013-03-31 04:18:00,
2013-03-30 23:19:00,32.7,31.5,28.73,West,270,8.1,13.0,95,0.00,,---,0.00,VWS V14.01,2013-03-31 04:19:00,
2013-03-30 23:20:00,32.7,31.5,28.73,WNW,292,12.3,12.3,95,0.00,,---,0.00,VWS V14.01,2013-03-31 04:20:00,
2013-03-30 23:21:00,32.7,31.5,28.73,WNW,292,9.2,12.3,95,0.00,,---,0.00,VWS V14.01,2013-03-31 04:21:00,
2013-03-30 23:22:00,32.7,31.7,28.73,West,270,9.8,11.0,96,0.00,,---,0.00,VWS V14.01,2013-03-31 04:22:00,
2013-03-30 23:23:00,32.7,31.7,28.73,West,270,9.8,11.0,96,0.00,,---,0.00,VWS V14.01,2013-03-31 04:23:00,
2013-03-30 23:24:00,32.7,31.7,28.70,WNW,292,10.1,10.3,96,0.00,,---,0.00,VWS V14.01,2013-03-31 04:24:00,
2013-03-30 23:25:00,32.7,31.7,28.70,WNW,292,10.7,10.7,96,0.00,,---,0.00,VWS V14.01,2013-03-31 04:25:00,
2013-03-30 23:26:00,32.7,31.7,28.70,NNW,338,10.5,10.7,96,0.00,,---,0.00,VWS V14.01,2013-03-31 04:26:00,
2013-03-30 23:27:00,32.7,31.7,28.70,NNW,338,10.3,10.3,96,0.00,,---,0.00,VWS V14.01,2013-03-31 04:27:00,
2013-03-30 23:28:00,32.7,31.7,28.70,NNW,338,10.3,10.3,96,0.00,,---,0.00,VWS V14.01,2013-03-31 04:28:00,
2013-03-30 23:30:00,32.7,31.7,28.70,NNW,338,7.4,11.4,96,0.00,,---,0.00,VWS V14.01,2013-03-31 04:30:00,
2013-03-30 23:32:00,32.7,31.7,28.70,WNW,292,8.7,13.0,96,0.00,,---,0.00,VWS V14.01,2013-03-31 04:32:00,
2013-03-30 23:33:00,32.7,31.7,28.70,WNW,292,8.7,13.0,96,0.00,,---,0.00,VWS V14.01,2013-03-31 04:33:00,
2013-03-30 23:34:00,32.7,31.7,28.70,NNE,22,10.7,13.0,96,0.00,,---,0.00,VWS V14.01,2013-03-31 04:34:00,
2013-03-30 23:35:00,32.7,31.7,28.70,NW,315,6.9,10.7,96,0.00,,---,0.00,VWS V14.01,2013-03-31 04:35:00,
2013-03-30 23:36:00,32.7,31.7,28.70,SW,225,12.1,12.1,96,0.00,,---,0.00,VWS V14.01,2013-03-31 04:36:00,
2013-03-30 23:37:00,32.7,31.7,28.70,WNW,292,6.3,12.1,96,0.00,,---,0.00,VWS V14.01,2013-03-31 04:37:00,
2013-03-30 23:38:00,32.7,31.7,28.70,WNW,292,6.3,12.1,96,0.00,,---,0.00,VWS V14.01,2013-03-31 04:38:00,
2013-03-30 23:39:00,32.7,31.7,28.70,WNW,292,10.7,13.4,96,0.00,,---,0.00,VWS V14.01,2013-03-31 04:39:00,
2013-03-30 23:40:00,32.7,31.7,28.70,West,270,9.2,14.1,96,0.00,,---,0.00,VWS V14.01,2013-03-31 04:40:00,
2013-03-30 23:41:00,32.7,31.7,28.70,WNW,292,7.6,11.0,96,0.00,,---,0.00,VWS V14.01,2013-03-31 04:41:00,
2013-03-30 23:42:00,32.7,31.7,28.70,WNW,292,8.1,11.9,96,0.00,,---,0.00,VWS V14.01,2013-03-31 04:42:00,
2013-03-30 23:43:00,32.7,31.7,28.70,NNW,338,10.5,11.9,96,0.00,,---,0.00,VWS V14.01,2013-03-31 04:43:00,
2013-03-30 23:44:00,32.7,31.7,28.70,NW,315,7.2,10.5,96,0.00,,---,0.00,VWS V14.01,2013-03-31 04:44:00,
2013-03-30 23:45:00,32.7,31.7,28.70,WNW,292,13.2,13.2,96,0.00,,---,0.00,VWS V14.01,2013-03-31 04:45:00,
2013-03-30 23:46:00,32.7,31.7,28.70,WNW,292,13.2,13.2,96,0.00,,---,0.00,VWS V14.01,2013-03-31 04:46:00,
2013-03-30 23:47:00,32.7,31.7,28.70,NW,315,5.6,13.2,96,0.00,,---,0.00,VWS V14.01,2013-03-31 04:47:00,
2013-03-30 23:48:00,32.7,31.7,28.70,NW,315,5.6,5.6,96,0.00,,---,0.00,VWS V14.01,2013-03-31 04:48:00,
2013-03-30 23:49:00,32.7,31.7,28.70,NW,315,5.6,5.6,96,0.00,,---,0.00,VWS V14.01,2013-03-31 04:49:00,
2013-03-30 23:50:00,32.7,31.7,28.70,NW,315,5.6,5.6,96,0.00,,---,0.00,VWS V14.01,2013-03-31 04:50:00,
2013-03-30 23:52:00,32.7,31.7,28.70,West,270,10.5,10.5,96,0.00,,---,0.00,VWS V14.01,2013-03-31 04:52:00,
2013-03-30 23:55:00,32.7,31.7,28.70,West,270,10.5,10.5,96,0.00,,---,0.00,VWS V14.01,2013-03-31 04:55:00,
2013-03-30 23:57:00,32.7,32.0,28.70,WNW,292,12.1,12.1,97,0.00,,---,0.00,VWS V14.01,2013-03-31 04:57:00,